Time;durP1;ratioP1;P1;durP2;ratioP2;P2;SDS_P1;SDS_P2;PMS_P1;PMS_P2;Temp;Humidity;BMP_temperature;BMP_pressure;BME280_temperature;BME280_humidity;BME280_pressure;Samples;Min_cycle;Max_cycle;Signal;HPM_P1;HPM_P2
2023/08/11 00:02:24;;;;;;;10.07;9.07;;;15.60;99.90;;;;;;5073314;28;20494;-38
2023/08/11 00:04:51;;;;;;;10.30;9.00;;;15.60;99.90;;;;;;5074262;28;20077;-39
2023/08/11 00:07:16;;;;;;;10.60;9.50;;;15.50;99.90;;;;;;5074495;28;20048;-42
2023/08/11 00:09:42;;;;;;;10.18;9.18;;;15.60;99.90;;;;;;5073772;28;20040;-38
2023/08/11 00:12:08;;;;;;;12.50;9.93;;;15.50;99.90;;;;;;5073120;28;20266;-38
2023/08/11 00:14:34;;;;;;;11.27;10.02;;;15.50;99.90;;;;;;5062516;28;20142;-44
2023/08/11 00:16:59;;;;;;;11.98;10.77;;;15.50;99.90;;;;;;5054934;28;20063;-41
2023/08/11 00:19:26;;;;;;;10.50;9.38;;;15.50;99.90;;;;;;5074575;28;20044;-40
2023/08/11 00:21:52;;;;;;;11.43;10.32;;;15.40;99.90;;;;;;5065916;28;20053;-39
2023/08/11 00:24:17;;;;;;;13.07;11.00;;;15.40;99.90;;;;;;5054595;28;20113;-38
2023/08/11 00:26:43;;;;;;;12.02;10.82;;;15.40;99.90;;;;;;5052756;28;20048;-41
2023/08/11 00:29:09;;;;;;;13.90;11.35;;;15.40;99.90;;;;;;5053094;28;20044;-44
2023/08/11 00:31:35;;;;;;;12.25;10.95;;;15.40;99.90;;;;;;5055035;28;20049;-41
2023/08/11 00:34:01;;;;;;;13.38;10.95;;;15.30;99.90;;;;;;5073523;28;20055;-43
2023/08/11 00:36:26;;;;;;;12.52;11.18;;;15.40;99.90;;;;;;5074122;28;20056;-43
2023/08/11 00:38:52;;;;;;;12.35;11.10;;;15.30;99.90;;;;;;5073854;28;20040;-39
2023/08/11 00:41:18;;;;;;;13.27;11.88;;;15.30;99.90;;;;;;5071234;28;20048;-39
2023/08/11 00:43:44;;;;;;;14.13;12.77;;;15.30;99.90;;;;;;5051692;28;20062;-41
2023/08/11 00:46:13;;;;;;;15.43;12.73;;;15.20;99.90;;;;;;5068314;28;20194;-38
2023/08/11 00:48:41;;;;;;;14.18;12.73;;;15.30;99.90;;;;;;5072719;28;20044;-41
2023/08/11 00:51:09;;;;;;;14.75;13.25;;;15.30;99.90;;;;;;5071150;28;20044;-41
2023/08/11 00:53:36;;;;;;;15.95;14.45;;;15.30;99.90;;;;;;5042363;28;20052;-40
2023/08/11 00:56:03;;;;;;;15.60;13.93;;;15.20;99.90;;;;;;5069187;28;20188;-40
2023/08/11 00:58:30;;;;;;;15.00;13.63;;;15.20;99.90;;;;;;5074261;28;20051;-41
2023/08/11 01:00:57;;;;;;;20.25;15.10;;;15.20;99.90;;;;;;5073943;28;20523;-43
2023/08/11 01:03:23;;;;;;;15.52;14.02;;;15.20;99.90;;;;;;5074009;28;20083;-43
2023/08/11 01:05:59;;;;;;;16.73;14.93;;;15.20;99.90;;;;;;5073753;28;20456;-41
2023/08/11 01:08:36;;;;;;;18.33;16.52;;;15.10;99.90;;;;;;5074321;28;20079;-39
2023/08/11 01:11:21;;;;;;;16.85;15.25;;;15.10;99.90;;;;;;5073414;28;20083;-39
2023/08/11 01:13:55;;;;;;;17.30;15.65;;;15.20;99.90;;;;;;5071118;28;20059;-45
2023/08/11 01:16:23;;;;;;;17.60;15.55;;;15.10;99.90;;;;;;5042255;28;20075;-41
2023/08/11 01:18:50;;;;;;;17.27;15.43;;;15.10;99.90;;;;;;5053646;28;20059;-41
2023/08/11 01:21:17;;;;;;;18.50;16.58;;;15.10;99.90;;;;;;5053887;28;20044;-38
2023/08/11 01:23:43;;;;;;;18.27;16.48;;;15.10;99.90;;;;;;5047861;28;20498;-42
2023/08/11 01:26:11;;;;;;;17.67;15.80;;;15.10;99.90;;;;;;5052926;28;20271;-40
2023/08/11 01:28:37;;;;;;;20.20;16.23;;;15.10;99.90;;;;;;5053032;28;20091;-42
2023/08/11 01:31:03;;;;;;;20.23;18.13;;;15.00;99.90;;;;;;5061412;28;20174;-44
2023/08/11 01:33:29;;;;;;;20.10;18.00;;;15.00;99.90;;;;;;5062368;28;20354;-42
2023/08/11 01:35:54;;;;;;;21.23;18.98;;;15.00;99.90;;;;;;5073956;28;20525;-39
2023/08/11 01:38:20;;;;;;;21.05;18.95;;;15.00;99.90;;;;;;5073380;28;20573;-41
2023/08/11 01:40:47;;;;;;;22.08;19.75;;;15.00;99.90;;;;;;5073372;28;20048;-38
2023/08/11 01:43:13;;;;;;;21.02;19.02;;;14.90;99.90;;;;;;5071484;28;20498;-39
2023/08/11 01:45:40;;;;;;;21.45;19.38;;;14.90;99.90;;;;;;5073577;28;20048;-38
2023/08/11 01:48:08;;;;;;;21.42;19.15;;;14.90;99.90;;;;;;5072938;28;20081;-38
2023/08/11 01:50:34;;;;;;;21.80;19.73;;;14.90;99.90;;;;;;5073057;28;20713;-41
2023/08/11 01:53:00;;;;;;;22.45;20.17;;;14.90;99.90;;;;;;5045642;28;20101;-42
2023/08/11 01:55:28;;;;;;;23.02;20.63;;;14.90;99.90;;;;;;5073803;28;20131;-39
2023/08/11 01:57:54;;;;;;;21.33;19.17;;;14.90;99.90;;;;;;5076531;28;20056;-38
2023/08/11 02:00:20;;;;;;;22.30;20.05;;;14.90;99.90;;;;;;5073594;28;20143;-40
2023/08/11 02:02:47;;;;;;;23.95;21.55;;;14.90;99.90;;;;;;5042285;28;20060;-40
2023/08/11 02:05:13;;;;;;;21.70;19.65;;;14.90;99.90;;;;;;5055590;28;20056;-38
2023/08/11 02:07:42;;;;;;;23.92;21.75;;;14.90;99.90;;;;;;5050599;28;20532;-40
2023/08/11 02:10:08;;;;;;;24.38;21.85;;;14.90;99.90;;;;;;5045683;28;20462;-39
2023/08/11 02:12:38;;;;;;;24.10;21.77;;;14.90;99.90;;;;;;5021106;28;20055;-40
2023/08/11 02:15:07;;;;;;;22.75;20.45;;;14.90;99.90;;;;;;5037388;28;20084;-37
2023/08/11 02:17:33;;;;;;;23.70;21.42;;;14.90;99.90;;;;;;5039404;28;20231;-39
2023/08/11 02:20:01;;;;;;;21.27;19.20;;;14.90;99.90;;;;;;5039719;28;20041;-41
2023/08/11 02:22:26;;;;;;;22.90;20.90;;;14.90;99.90;;;;;;5038201;28;20193;-41
2023/08/11 02:24:52;;;;;;;22.08;20.13;;;14.90;99.90;;;;;;5043900;28;20051;-42
2023/08/11 02:27:18;;;;;;;25.15;21.63;;;14.90;99.90;;;;;;5038349;28;20403;-38
2023/08/11 02:29:44;;;;;;;25.33;22.92;;;14.90;99.90;;;;;;5035850;28;20407;-42
2023/08/11 02:32:11;;;;;;;25.15;22.75;;;14.80;99.90;;;;;;5038637;28;20400;-38
2023/08/11 02:34:37;;;;;;;25.77;23.05;;;14.80;99.90;;;;;;5038368;28;20140;-45
2023/08/11 02:37:03;;;;;;;26.38;23.77;;;14.80;99.90;;;;;;5036224;28;20060;-41
2023/08/11 02:39:29;;;;;;;25.92;23.52;;;14.80;99.90;;;;;;5038903;28;20578;-37
2023/08/11 02:41:55;;;;;;;28.33;25.40;;;14.80;99.90;;;;;;5025333;28;20056;-39
2023/08/11 02:44:22;;;;;;;25.67;23.10;;;14.80;99.90;;;;;;5041301;28;20236;-38
2023/08/11 02:46:48;;;;;;;25.95;23.55;;;14.80;99.90;;;;;;5047122;28;20045;-38
2023/08/11 02:49:13;;;;;;;23.48;21.17;;;14.70;99.90;;;;;;5036255;28;20094;-42
2023/08/11 02:51:39;;;;;;;26.85;24.05;;;14.70;99.90;;;;;;5035937;28;20111;-42
2023/08/11 02:54:05;;;;;;;26.88;24.27;;;14.70;99.90;;;;;;5036122;28;20060;-41
2023/08/11 02:56:31;;;;;;;25.50;23.10;;;14.70;99.90;;;;;;5041171;28;20064;-38
2023/08/11 02:58:58;;;;;;;25.38;22.67;;;14.70;99.90;;;;;;5033142;28;20040;-43
2023/08/11 03:01:25;;;;;;;24.38;21.80;;;14.70;99.90;;;;;;5040737;28;20048;-39
2023/08/11 03:03:50;;;;;;;24.92;22.50;;;14.70;99.90;;;;;;5039433;28;20065;-42
2023/08/11 03:06:16;;;;;;;26.55;21.55;;;14.70;99.90;;;;;;5035931;28;20049;-41
2023/08/11 03:08:42;;;;;;;24.13;21.88;;;14.60;99.90;;;;;;5039543;28;20130;-43
2023/08/11 03:11:08;;;;;;;24.70;22.45;;;14.70;99.90;;;;;;5050883;28;20040;-39
2023/08/11 03:13:35;;;;;;;22.98;20.70;;;14.60;99.90;;;;;;5044466;28;20044;-42
2023/08/11 03:16:01;;;;;;;23.40;21.00;;;14.60;99.90;;;;;;5036856;28;20040;-39
2023/08/11 03:18:27;;;;;;;22.85;20.50;;;14.60;99.90;;;;;;5037661;28;20126;-41
2023/08/11 03:20:53;;;;;;;23.52;21.33;;;14.60;99.90;;;;;;5034640;28;20049;-39
2023/08/11 03:23:19;;;;;;;23.42;21.35;;;14.60;99.90;;;;;;5048888;28;20273;-39
2023/08/11 03:25:45;;;;;;;22.65;20.55;;;14.60;99.90;;;;;;5040175;28;20044;-38
2023/08/11 03:28:11;;;;;;;22.23;20.27;;;14.60;99.90;;;;;;5072233;28;20501;-40
2023/08/11 03:30:37;;;;;;;25.80;22.63;;;14.60;99.90;;;;;;5035502;28;20577;-41
2023/08/11 03:33:03;;;;;;;21.90;19.70;;;14.60;99.90;;;;;;5038713;28;20225;-43
2023/08/11 03:35:31;;;;;;;21.30;19.20;;;14.50;99.90;;;;;;5033840;28;20593;-41
2023/08/11 03:37:57;;;;;;;25.33;19.92;;;14.50;99.90;;;;;;5040282;28;20056;-40
2023/08/11 03:40:23;;;;;;;20.83;18.83;;;14.50;99.90;;;;;;5038343;28;20056;-43
2023/08/11 03:42:49;;;;;;;18.83;16.90;;;14.50;99.90;;;;;;5036102;28;20210;-42
2023/08/11 03:45:14;;;;;;;18.92;17.13;;;14.50;99.90;;;;;;5040452;28;20123;-40
2023/08/11 03:47:41;;;;;;;19.75;17.73;;;14.50;99.90;;;;;;5055877;28;20419;-38
2023/08/11 03:50:08;;;;;;;23.05;17.58;;;14.60;99.90;;;;;;5053633;28;20119;-41
2023/08/11 03:52:34;;;;;;;19.80;18.00;;;14.50;99.90;;;;;;5041437;28;20080;-40
2023/08/11 03:55:00;;;;;;;19.52;17.52;;;14.50;99.90;;;;;;5054044;28;20084;-41
2023/08/11 03:57:26;;;;;;;18.58;16.73;;;14.50;99.90;;;;;;5053823;28;20132;-40
2023/08/11 03:59:52;;;;;;;19.15;17.25;;;14.50;99.90;;;;;;5052713;28;20067;-41
2023/08/11 04:02:17;;;;;;;19.20;17.20;;;14.50;99.90;;;;;;5052658;28;20455;-37
2023/08/11 04:04:44;;;;;;;20.05;18.00;;;14.50;99.90;;;;;;5055036;28;20040;-41
2023/08/11 04:07:10;;;;;;;18.13;16.50;;;14.50;99.90;;;;;;5054568;28;20044;-38
2023/08/11 04:09:39;;;;;;;17.80;15.55;;;14.50;99.90;;;;;;5055095;28;20442;-37
2023/08/11 04:12:06;;;;;;;18.25;16.55;;;14.50;99.90;;;;;;5056645;28;20052;-38
2023/08/11 04:14:32;;;;;;;18.40;16.70;;;14.60;99.90;;;;;;5064050;28;20052;-38
2023/08/11 04:16:57;;;;;;;18.67;16.85;;;14.50;99.90;;;;;;5053221;28;20044;-39
2023/08/11 04:19:23;;;;;;;17.48;15.70;;;14.60;99.90;;;;;;5053868;28;20217;-39
2023/08/11 04:21:49;;;;;;;17.60;15.63;;;14.60;99.90;;;;;;5051713;28;20816;-41
2023/08/11 04:24:17;;;;;;;16.77;15.10;;;14.70;99.90;;;;;;5038176;28;20513;-38
2023/08/11 04:26:43;;;;;;;17.25;15.65;;;14.70;99.90;;;;;;5055412;28;20067;-45
2023/08/11 04:29:09;;;;;;;17.55;15.85;;;14.70;99.90;;;;;;5063036;28;20036;-38
2023/08/11 04:31:34;;;;;;;16.63;15.02;;;14.80;99.90;;;;;;5074770;28;20889;-41
2023/08/11 04:34:00;;;;;;;17.88;16.13;;;14.80;99.90;;;;;;5075499;28;20386;-41
2023/08/11 04:36:26;;;;;;;16.60;14.40;;;14.90;99.90;;;;;;5074440;28;20052;-38
2023/08/11 04:38:52;;;;;;;16.30;14.77;;;14.90;99.90;;;;;;5061111;28;20084;-37
2023/08/11 04:41:18;;;;;;;17.25;15.48;;;15.00;99.90;;;;;;5075130;28;20044;-43
2023/08/11 04:43:43;;;;;;;16.95;15.40;;;15.10;99.90;;;;;;5075009;28;20082;-42
2023/08/11 04:46:09;;;;;;;16.98;15.48;;;15.10;99.90;;;;;;5073914;28;20044;-40
2023/08/11 04:48:35;;;;;;;16.60;14.93;;;15.20;99.90;;;;;;5062149;28;20048;-41
2023/08/11 04:51:01;;;;;;;16.52;15.02;;;15.20;99.90;;;;;;5060534;28;20169;-39
2023/08/11 04:53:27;;;;;;;17.63;15.80;;;15.30;99.90;;;;;;5042456;28;20084;-41
2023/08/11 04:55:52;;;;;;;16.95;15.30;;;15.40;99.90;;;;;;5066425;28;20052;-39
2023/08/11 04:58:18;;;;;;;16.83;15.13;;;15.40;99.90;;;;;;5062928;28;20108;-40
2023/08/11 05:00:44;;;;;;;17.15;15.57;;;15.60;99.90;;;;;;5074390;28;20122;-40
2023/08/11 05:03:10;;;;;;;17.52;15.88;;;15.80;99.90;;;;;;5074169;28;20100;-40
2023/08/11 05:05:35;;;;;;;15.00;13.50;;;16.50;99.90;;;;;;5074632;28;20058;-40
2023/08/11 05:08:02;;;;;;;15.93;14.23;;;17.40;99.90;;;;;;5075217;28;20055;-38
2023/08/11 05:10:27;;;;;;;14.90;12.93;;;18.20;99.90;;;;;;5074207;28;20055;-40
2023/08/11 05:12:53;;;;;;;14.30;12.90;;;18.80;99.90;;;;;;5073768;28;20277;-40
2023/08/11 05:15:19;;;;;;;13.35;12.07;;;19.40;99.90;;;;;;5057150;28;20118;-43
2023/08/11 05:17:45;;;;;;;12.77;11.57;;;20.00;99.90;;;;;;5054415;28;20040;-39
2023/08/11 05:20:11;;;;;;;12.25;11.05;;;20.50;99.90;;;;;;5047570;28;20079;-40
2023/08/11 05:22:37;;;;;;;12.38;11.18;;;20.90;99.90;;;;;;5057676;28;20094;-43
2023/08/11 05:25:06;;;;;;;12.00;10.90;;;21.30;99.90;;;;;;5072882;28;20320;-40
2023/08/11 05:27:33;;;;;;;12.07;10.98;;;21.60;99.90;;;;;;5074657;28;20047;-42
2023/08/11 05:29:58;;;;;;;12.18;11.10;;;21.80;99.90;;;;;;5074227;28;20512;-40
2023/08/11 05:32:24;;;;;;;12.18;10.95;;;22.20;99.90;;;;;;5076773;28;20052;-44
2023/08/11 05:34:51;;;;;;;12.68;10.40;;;22.50;99.90;;;;;;5077012;28;20063;-42
2023/08/11 05:37:17;;;;;;;11.25;9.80;;;22.80;99.90;;;;;;5077972;28;20075;-42
2023/08/11 05:39:43;;;;;;;10.98;9.90;;;23.30;99.90;;;;;;5078139;28;20040;-43
2023/08/11 05:42:09;;;;;;;11.98;10.60;;;23.70;99.90;;;;;;5078181;28;20047;-41
2023/08/11 05:44:35;;;;;;;11.40;10.35;;;24.10;99.90;;;;;;5078221;28;20055;-42
2023/08/11 05:47:01;;;;;;;10.55;9.43;;;24.60;99.90;;;;;;5078012;28;20055;-39
2023/08/11 05:49:27;;;;;;;10.35;9.25;;;25.00;99.90;;;;;;5077214;28;20955;-42
2023/08/11 05:51:53;;;;;;;10.95;9.95;;;25.50;99.90;;;;;;5062785;28;20055;-42
2023/08/11 05:54:19;;;;;;;11.35;9.60;;;26.00;99.90;;;;;;5068295;28;20379;-44
2023/08/11 05:56:44;;;;;;;10.05;9.07;;;26.30;99.90;;;;;;5079194;28;20083;-43
2023/08/11 05:59:10;;;;;;;10.55;9.43;;;26.40;99.90;;;;;;5076332;28;20059;-42
2023/08/11 06:01:36;;;;;;;12.65;9.45;;;26.40;99.90;;;;;;5068837;28;20048;-42
2023/08/11 06:04:02;;;;;;;10.38;9.23;;;26.50;98.90;;;;;;5072530;28;20502;-42
2023/08/11 06:06:28;;;;;;;10.43;8.98;;;26.80;99.50;;;;;;5077953;28;20047;-42
2023/08/11 06:08:54;;;;;;;10.77;9.73;;;26.80;99.40;;;;;;5076854;28;20493;-43
2023/08/11 06:11:21;;;;;;;12.02;9.90;;;26.80;98.70;;;;;;5077691;28;20048;-42
2023/08/11 06:13:46;;;;;;;12.43;9.07;;;27.00;98.50;;;;;;5074509;28;20059;-44
2023/08/11 06:16:12;;;;;;;9.13;8.32;;;27.30;98.50;;;;;;5057396;28;20074;-43
2023/08/11 06:18:38;;;;;;;9.30;8.40;;;27.70;97.60;;;;;;5071791;28;20051;-42
2023/08/11 06:21:05;;;;;;;9.55;8.20;;;28.00;98.40;;;;;;5077463;28;20052;-44
2023/08/11 06:23:31;;;;;;;10.20;8.60;;;28.00;96.80;;;;;;5055277;28;20550;-42
2023/08/11 06:25:57;;;;;;;9.38;8.55;;;28.40;97.30;;;;;;5057663;28;20363;-45
2023/08/11 06:28:23;;;;;;;8.82;8.00;;;28.60;96.30;;;;;;5056982;28;20053;-49
2023/08/11 06:30:49;;;;;;;8.73;7.78;;;28.90;96.30;;;;;;5055475;28;20048;-47
2023/08/11 06:33:15;;;;;;;10.07;8.00;;;28.90;95.50;;;;;;5056320;28;20083;-41
2023/08/11 06:35:42;;;;;;;10.70;7.85;;;29.30;94.80;;;;;;5058008;28;20123;-44
2023/08/11 06:38:09;;;;;;;8.73;7.00;;;29.10;94.60;;;;;;5058565;28;20654;-43
2023/08/11 06:40:36;;;;;;;7.40;6.70;;;29.00;94.30;;;;;;5077133;28;20387;-43
2023/08/11 06:43:02;;;;;;;10.60;8.20;;;29.20;94.60;;;;;;5075830;28;20494;-43
2023/08/11 06:45:27;;;;;;;7.35;6.68;;;29.20;94.20;;;;;;5077397;28;20055;-47
2023/08/11 06:47:53;;;;;;;7.53;6.63;;;29.20;94.40;;;;;;5076598;28;20048;-42
2023/08/11 06:50:19;;;;;;;9.25;7.22;;;29.20;94.20;;;;;;5066595;28;20155;-44
2023/08/11 06:52:45;;;;;;;9.27;7.63;;;29.20;94.40;;;;;;5045085;28;20079;-43
2023/08/11 06:55:11;;;;;;;9.02;6.65;;;29.20;94.50;;;;;;5077179;28;20052;-39
2023/08/11 06:57:37;;;;;;;8.32;6.90;;;29.20;94.30;;;;;;5075234;28;20276;-44
2023/08/11 07:00:07;;;;;;;10.13;7.10;;;29.40;94.30;;;;;;5056402;28;20047;-46
2023/08/11 07:02:33;;;;;;;7.72;6.88;;;29.50;94.00;;;;;;5055994;28;20075;-40
2023/08/11 07:04:59;;;;;;;8.05;7.15;;;29.60;93.70;;;;;;5057178;28;20048;-40
2023/08/11 07:07:24;;;;;;;7.68;6.50;;;29.50;93.80;;;;;;5056680;28;20049;-42
2023/08/11 07:09:50;;;;;;;8.52;6.57;;;29.10;94.50;;;;;;5055183;28;20036;-43
2023/08/11 07:12:16;;;;;;;9.02;6.55;;;28.50;95.30;;;;;;5055856;28;20076;-42
2023/08/11 07:14:42;;;;;;;8.18;7.10;;;27.90;95.60;;;;;;5053869;28;20461;-39
2023/08/11 07:17:08;;;;;;;7.20;6.50;;;27.40;96.60;;;;;;5057883;28;20922;-40
2023/08/11 07:19:34;;;;;;;9.60;6.70;;;27.50;96.70;;;;;;5074690;28;20052;-44
2023/08/11 07:22:00;;;;;;;8.57;7.10;;;27.60;96.40;;;;;;5051675;28;20114;-46
2023/08/11 07:24:26;;;;;;;10.30;7.50;;;27.50;96.90;;;;;;5064162;28;20135;-40
2023/08/11 07:26:51;;;;;;;7.95;6.68;;;27.00;97.20;;;;;;5075216;28;20052;-41
2023/08/11 07:29:17;;;;;;;8.90;7.45;;;26.80;97.40;;;;;;5075224;28;20071;-43
2023/08/11 07:31:44;;;;;;;11.70;7.40;;;26.50;97.60;;;;;;5067936;28;20415;-43
2023/08/11 07:34:09;;;;;;;7.68;6.97;;;26.20;97.80;;;;;;5064546;28;20051;-44
2023/08/11 07:36:36;;;;;;;10.30;6.70;;;26.00;98.60;;;;;;5062236;28;20052;-41
2023/08/11 07:39:01;;;;;;;8.02;6.60;;;26.10;99.10;;;;;;5055014;28;20136;-40
2023/08/11 07:41:27;;;;;;;8.73;6.97;;;26.30;98.50;;;;;;5058246;28;20139;-43
2023/08/11 07:43:53;;;;;;;8.25;7.35;;;26.10;99.20;;;;;;5054520;28;20044;-44
2023/08/11 07:46:20;;;;;;;8.57;7.28;;;25.90;99.10;;;;;;5054797;28;20044;-44
2023/08/11 07:48:46;;;;;;;8.70;6.70;;;26.10;98.90;;;;;;5053108;28;20044;-40
2023/08/11 07:51:14;;;;;;;7.55;6.50;;;25.80;99.10;;;;;;5051758;28;20044;-41
2023/08/11 07:53:39;;;;;;;7.63;6.82;;;25.90;99.50;;;;;;5043010;28;20086;-44
2023/08/11 07:56:05;;;;;;;7.30;6.03;;;25.80;99.30;;;;;;5054411;28;21393;-41
2023/08/11 07:58:31;;;;;;;7.10;5.75;;;25.80;99.70;;;;;;5054283;28;20049;-40
2023/08/11 08:00:57;;;;;;;8.88;6.15;;;25.80;99.70;;;;;;5054777;28;20131;-45
2023/08/11 08:03:23;;;;;;;7.05;6.35;;;25.70;99.60;;;;;;5054458;28;20051;-45
2023/08/11 08:05:49;;;;;;;8.68;6.28;;;25.70;98.80;;;;;;5053080;28;20063;-47
2023/08/11 08:08:15;;;;;;;9.23;6.45;;;25.60;99.20;;;;;;5054426;28;20090;-44
2023/08/11 08:10:41;;;;;;;7.28;5.75;;;25.40;99.70;;;;;;5054698;28;20110;-41
2023/08/11 08:13:07;;;;;;;14.20;6.55;;;25.40;99.90;;;;;;5053967;28;20052;-46
2023/08/11 08:15:32;;;;;;;7.80;6.65;;;25.40;99.90;;;;;;5052256;28;20163;-40
2023/08/11 08:17:58;;;;;;;7.70;5.78;;;25.40;99.90;;;;;;5054415;28;20063;-44
2023/08/11 08:20:24;;;;;;;9.98;6.40;;;25.50;99.90;;;;;;5052616;28;20159;-43
2023/08/11 08:22:49;;;;;;;9.18;6.18;;;25.60;99.90;;;;;;5049971;28;20036;-45
2023/08/11 08:25:15;;;;;;;7.75;6.82;;;25.60;99.90;;;;;;5054346;28;20106;-41
2023/08/11 08:27:42;;;;;;;7.72;6.68;;;25.60;99.90;;;;;;5053954;28;20055;-42
2023/08/11 08:30:10;;;;;;;9.27;6.70;;;25.60;99.90;;;;;;5051826;28;20487;-45
2023/08/11 08:32:37;;;;;;;7.97;6.47;;;25.60;99.90;;;;;;5053823;28;20137;-46
2023/08/11 08:35:03;;;;;;;9.43;7.43;;;25.70;99.70;;;;;;5049755;28;21041;-42
2023/08/11 08:37:31;;;;;;;11.65;7.00;;;25.60;99.20;;;;;;5052145;28;20495;-47
2023/08/11 08:39:57;;;;;;;6.85;6.10;;;25.60;99.90;;;;;;5052638;28;20133;-44
2023/08/11 08:42:25;;;;;;;9.30;6.65;;;25.60;99.90;;;;;;5050623;28;20155;-40
2023/08/11 08:44:52;;;;;;;8.60;6.25;;;25.60;99.90;;;;;;5053816;28;20049;-44
2023/08/11 08:47:20;;;;;;;9.40;6.35;;;25.70;99.90;;;;;;5052757;28;20388;-42
2023/08/11 08:49:47;;;;;;;10.13;6.90;;;25.70;99.90;;;;;;5052484;28;20036;-40
2023/08/11 08:52:13;;;;;;;8.18;5.70;;;25.70;99.90;;;;;;5050446;28;20060;-42
2023/08/11 08:54:39;;;;;;;9.63;6.80;;;25.80;99.90;;;;;;5051690;28;20041;-43
2023/08/11 08:57:08;;;;;;;9.00;6.57;;;25.90;99.90;;;;;;5035024;28;20060;-45
2023/08/11 08:59:34;;;;;;;7.22;5.97;;;25.90;99.90;;;;;;5052894;28;20071;-43
2023/08/11 09:02:00;;;;;;;9.20;6.40;;;26.00;99.90;;;;;;5052182;28;20041;-43
2023/08/11 09:04:27;;;;;;;9.23;6.30;;;26.00;99.90;;;;;;5055069;28;20087;-43
2023/08/11 09:06:53;;;;;;;9.63;7.03;;;26.10;99.90;;;;;;5057824;28;20376;-42
2023/08/11 09:09:19;;;;;;;11.75;6.65;;;26.10;99.90;;;;;;5060093;28;20469;-46
2023/08/11 09:11:45;;;;;;;9.07;6.20;;;26.10;99.90;;;;;;5077839;28;20032;-43
2023/08/11 09:14:11;;;;;;;9.85;6.35;;;26.20;99.90;;;;;;5070390;28;20094;-41
2023/08/11 09:16:38;;;;;;;10.30;5.75;;;26.10;99.90;;;;;;5056664;28;20552;-45
2023/08/11 09:19:08;;;;;;;10.80;6.50;;;26.20;99.90;;;;;;5075524;28;20113;-46
2023/08/11 09:21:34;;;;;;;7.60;5.88;;;26.20;99.90;;;;;;5074152;28;20043;-45
2023/08/11 09:24:00;;;;;;;7.13;5.50;;;26.20;99.90;;;;;;5075186;28;20036;-42
2023/08/11 09:26:26;;;;;;;7.95;5.65;;;26.40;99.90;;;;;;5078877;28;20054;-41
2023/08/11 09:28:53;;;;;;;7.85;5.40;;;26.40;99.90;;;;;;5077886;28;20476;-43
2023/08/11 09:31:23;;;;;;;7.25;5.68;;;26.40;99.90;;;;;;5072333;28;20041;-45
2023/08/11 09:33:52;;;;;;;7.32;5.78;;;26.50;99.90;;;;;;5058661;28;20082;-44
2023/08/11 09:36:19;;;;;;;8.95;5.38;;;26.50;99.90;;;;;;5058157;28;20581;-41
2023/08/11 09:38:46;;;;;;;10.57;5.53;;;26.50;99.90;;;;;;5062724;28;20109;-44
2023/08/11 09:41:13;;;;;;;7.32;4.90;;;26.50;99.80;;;;;;5057325;28;20243;-40
2023/08/11 09:43:39;;;;;;;8.70;5.35;;;26.70;99.90;;;;;;5057487;28;20866;-42
2023/08/11 09:46:04;;;;;;;8.80;5.80;;;26.70;99.90;;;;;;5056623;28;20048;-43
2023/08/11 09:48:31;;;;;;;8.38;5.22;;;26.60;99.90;;;;;;5056902;28;20059;-42
2023/08/11 09:50:57;;;;;;;8.63;5.55;;;26.70;99.90;;;;;;5056716;28;20044;-44
2023/08/11 09:53:24;;;;;;;8.88;5.75;;;26.80;99.90;;;;;;5043923;28;20045;-44
2023/08/11 09:55:54;;;;;;;6.85;5.32;;;26.80;99.90;;;;;;5056784;28;20475;-44
2023/08/11 09:58:24;;;;;;;6.68;5.22;;;26.70;99.90;;;;;;5074655;28;20799;-43
2023/08/11 10:00:52;;;;;;;7.75;4.63;;;26.70;99.90;;;;;;5061046;28;20049;-46
2023/08/11 10:03:25;;;;;;;6.22;5.22;;;26.80;99.80;;;;;;5067043;28;20048;-44
2023/08/11 10:05:54;;;;;;;6.50;5.28;;;27.00;99.90;;;;;;5077719;28;20088;-42
2023/08/11 10:08:22;;;;;;;8.25;6.00;;;27.20;99.90;;;;;;5076865;28;20040;-45
2023/08/11 10:10:48;;;;;;;6.20;5.20;;;27.00;99.90;;;;;;5078024;28;20080;-42
2023/08/11 10:13:25;;;;;;;11.00;6.25;;;27.00;99.90;;;;;;5078008;28;20554;-46
2023/08/11 10:15:53;;;;;;;8.05;5.68;;;26.80;99.90;;;;;;5055713;28;20052;-43
2023/08/11 10:18:20;;;;;;;6.35;5.30;;;26.70;99.90;;;;;;5068683;28;20052;-43
2023/08/11 10:20:50;;;;;;;6.15;5.10;;;26.70;99.90;;;;;;5078125;28;20048;-40
2023/08/11 10:23:17;;;;;;;8.93;5.15;;;26.70;99.90;;;;;;5070716;28;20044;-48
2023/08/11 10:25:44;;;;;;;7.18;5.63;;;26.70;99.50;;;;;;5077788;28;20123;-43
2023/08/11 10:28:12;;;;;;;7.32;5.07;;;26.60;99.90;;;;;;5076968;28;20048;-41
2023/08/11 10:30:40;;;;;;;9.35;5.70;;;26.60;99.90;;;;;;5077571;28;20048;-41
2023/08/11 10:33:07;;;;;;;7.07;5.88;;;26.60;99.90;;;;;;5076765;28;20115;-44
2023/08/11 10:35:34;;;;;;;8.38;5.57;;;26.70;99.90;;;;;;5077276;28;20048;-44
2023/08/11 10:38:03;;;;;;;8.68;5.38;;;26.80;99.90;;;;;;5075380;28;20059;-47
2023/08/11 10:40:38;;;;;;;9.68;6.03;;;27.00;99.90;;;;;;5064939;28;20080;-40
2023/08/11 10:43:04;;;;;;;9.15;5.68;;;27.20;99.90;;;;;;5076288;28;20051;-42
2023/08/11 10:45:32;;;;;;;6.75;5.65;;;27.20;99.90;;;;;;5076908;28;20044;-45
2023/08/11 10:47:59;;;;;;;8.43;5.75;;;27.20;99.90;;;;;;5074632;28;20098;-44
2023/08/11 10:50:26;;;;;;;9.20;5.95;;;27.20;99.90;;;;;;5077059;28;20040;-42
2023/08/11 10:53:16;;;;;;;10.18;6.38;;;27.40;99.90;;;;;;5047186;28;20052;-44
2023/08/11 10:55:42;;;;;;;8.65;5.55;;;27.50;99.90;;;;;;5056696;28;20131;-43
2023/08/11 10:58:16;;;;;;;9.77;5.57;;;27.30;99.90;;;;;;5056475;28;20690;-46
2023/08/11 11:00:43;;;;;;;7.28;5.10;;;27.30;99.90;;;;;;5056991;28;20045;-45
2023/08/11 11:03:11;;;;;;;8.00;5.85;;;27.30;99.90;;;;;;5056712;28;20045;-41
2023/08/11 11:05:40;;;;;;;6.55;5.32;;;27.40;99.90;;;;;;5056766;28;20583;-44
2023/08/11 11:08:06;;;;;;;6.15;5.28;;;27.40;99.90;;;;;;5056235;28;20388;-43
2023/08/11 11:10:32;;;;;;;11.40;5.63;;;27.40;99.90;;;;;;5056812;28;20070;-43
2023/08/11 11:12:57;;;;;;;9.80;6.13;;;27.40;99.90;;;;;;5074534;28;20052;-46
2023/08/11 11:15:24;;;;;;;7.57;5.20;;;27.40;99.90;;;;;;5057442;28;20445;-43
2023/08/11 11:17:51;;;;;;;8.90;4.82;;;27.40;99.90;;;;;;5064138;28;20048;-44
2023/08/11 11:20:17;;;;;;;6.43;5.28;;;27.50;99.90;;;;;;5076138;28;20499;-41
2023/08/11 11:22:49;;;;;;;7.80;5.30;;;27.70;99.90;;;;;;5061150;28;20052;-44
2023/08/11 11:25:16;;;;;;;;;;;27.60;99.90;;;;;;5071778;28;20044;-44
2023/08/11 11:27:43;;;;;;;6.63;4.80;;;27.80;99.90;;;;;;5076481;28;19924;-44
2023/08/11 11:30:10;;;;;;;6.38;5.38;;;27.90;99.90;;;;;;5074143;28;20504;-43
2023/08/11 11:32:37;;;;;;;8.40;5.15;;;27.90;99.90;;;;;;5075809;28;20044;-44
2023/08/11 11:35:04;;;;;;;8.45;5.85;;;28.00;99.90;;;;;;5076329;28;20044;-43
2023/08/11 11:37:32;;;;;;;7.55;5.45;;;28.00;99.90;;;;;;5076596;28;20055;-45
2023/08/11 11:39:58;;;;;;;7.10;5.00;;;27.90;99.90;;;;;;5073997;28;20056;-41
2023/08/11 11:42:29;;;;;;;9.63;5.35;;;28.00;99.90;;;;;;5076119;28;20552;-46
2023/08/11 11:44:58;;;;;;;7.05;5.53;;;27.90;99.90;;;;;;5074955;28;20589;-44
2023/08/11 11:47:24;;;;;;;9.52;5.53;;;27.80;99.90;;;;;;5075068;28;20506;-45
2023/08/11 11:49:57;;;;;;;7.55;5.18;;;27.80;99.90;;;;;;5074968;28;20040;-45
2023/08/11 11:52:24;;;;;;;11.05;6.28;;;27.70;99.90;;;;;;5052284;28;20049;-44
2023/08/11 11:54:56;;;;;;;6.68;5.00;;;27.60;99.90;;;;;;5054741;28;20055;-45
2023/08/11 11:57:22;;;;;;;9.07;5.47;;;27.60;99.90;;;;;;5068919;28;20081;-42
2023/08/11 11:59:52;;;;;;;6.90;5.18;;;27.70;99.90;;;;;;5074332;28;20131;-43
2023/08/11 12:02:18;;;;;;;10.00;5.20;;;27.60;99.90;;;;;;5075503;28;20090;-41
2023/08/11 12:04:45;;;;;;;6.28;4.47;;;27.70;99.90;;;;;;5076138;28;20130;-42
2023/08/11 12:07:46;;;;;;;9.93;4.50;;;27.70;99.90;;;;;;5075595;28;20044;-42
2023/08/11 12:10:13;;;;;;;7.82;5.20;;;27.70;99.90;;;;;;5035261;28;20592;-42
2023/08/11 12:12:38;;;;;;;7.78;5.03;;;27.80;99.90;;;;;;5051080;28;20451;-42
2023/08/11 12:15:06;;;;;;;7.22;4.53;;;28.00;99.90;;;;;;5037256;28;20053;-43
2023/08/11 12:17:35;;;;;;;5.43;4.28;;;28.20;99.90;;;;;;5036720;28;20554;-42
2023/08/11 12:20:06;;;;;;;5.88;4.70;;;28.30;99.90;;;;;;5050782;28;20048;-42
2023/08/11 12:22:32;;;;;;;9.57;4.95;;;28.30;99.90;;;;;;5047413;28;20526;-44
2023/08/11 12:24:58;;;;;;;7.47;4.30;;;28.20;99.90;;;;;;5051748;28;20056;-43
2023/08/11 12:27:23;;;;;;;8.93;4.25;;;28.10;99.90;;;;;;5051251;28;20691;-40
2023/08/11 12:29:49;;;;;;;4.78;4.28;;;28.20;99.90;;;;;;5050830;28;21036;-43
2023/08/11 12:32:15;;;;;;;6.20;4.15;;;28.40;99.90;;;;;;5050725;28;20094;-45
2023/08/11 12:34:40;;;;;;;6.63;4.18;;;28.30;99.90;;;;;;5051356;28;20596;-45
2023/08/11 12:37:07;;;;;;;8.77;3.92;;;28.30;99.90;;;;;;5050920;28;20060;-46